| time (UTC) | temp F | wind direction | speed knots | gust knots | rain 1hr in | rain 24hr in | rain mn in | humidity % | barometer mb |
| 20260505193543 | 81 | 124 | 0.0 | 3.5 | 0.00 | 0.00 | 0.00 | 42 | 1014.2 |
| 20260505193100 | 80 | 220 | 0.0 | 1.7 | 0.00 | 0.00 | 0.00 | 42 | 1014.3 |
| 20260505192546 | 80 | 146 | 0.0 | 1.7 | 0.00 | 0.00 | 0.00 | 42 | 1014.2 |
| 20260505192043 | 80 | 0 | 0.0 | 2.6 | 0.00 | 0.00 | 0.00 | 41 | 1014.2 |
| 20260505191557 | 80 | 255 | 0.0 | 2.6 | 0.00 | 0.00 | 0.00 | 40 | 1014.4 |
| 20260505191043 | 81 | 217 | 0.0 | 2.6 | 0.00 | 0.00 | 0.00 | 41 | 1014.4 |
| 20260505190543 | 80 | 0 | 0.0 | 1.7 | 0.00 | 0.00 | 0.00 | 43 | 1014.5 |
| 20260505190056 | 80 | 246 | 0.0 | 2.6 | 0.00 | 0.00 | 0.00 | 43 | 1014.7 |
| 20260505185543 | 80 | 222 | 0.0 | 2.6 | 0.00 | 0.00 | 0.00 | 43 | 1014.7 |
| 20260505185044 | 80 | 0 | 0.0 | 1.7 | 0.00 | 0.00 | 0.00 | 43 | 1014.8 |
| 20260505184551 | 79 | 0 | 0.0 | 1.7 | 0.00 | 0.00 | 0.00 | 43 | 1014.9 |
| 20260505184046 | 79 | 0 | 0.0 | 1.7 | 0.00 | 0.00 | 0.00 | 42 | 1014.9 |
| 20260505183543 | 79 | 238 | 0.0 | 1.7 | 0.00 | 0.00 | 0.00 | 43 | 1015.1 |
| 20260505183050 | 79 | 0 | 0.0 | 0.9 | 0.00 | 0.00 | 0.00 | 42 | 1015.2 |
| 20260505182544 | 79 | 217 | 0.0 | 0.9 | 0.00 | 0.00 | 0.00 | 44 | 1015.3 |
| 20260505182043 | 79 | 0 | 0.0 | 2.6 | 0.00 | 0.00 | 0.00 | 43 | 1015.3 |
| 20260505181555 | 80 | 332 | 0.0 | 2.6 | 0.00 | 0.00 | 0.00 | 42 | 1015.3 |
| 20260505181054 | 79 | 224 | 0.0 | 1.7 | 0.00 | 0.00 | 0.00 | 43 | 1015.3 |
| 20260505180543 | 79 | 0 | 0.0 | 1.7 | 0.00 | 0.00 | 0.00 | 44 | 1015.3 |
| 20260505180051 | 79 | 0 | 0.0 | 1.7 | 0.00 | 0.00 | 0.00 | 43 | 1015.4 |
| 20260505175543 | 79 | 218 | 0.0 | 1.7 | 0.00 | 0.00 | 0.00 | 43 | 1015.3 |
| 20260505175043 | 79 | 181 | 0.0 | 1.7 | 0.00 | 0.00 | 0.00 | 44 | 1015.3 |
| 20260505174549 | 79 | 221 | 0.0 | 1.7 | 0.00 | 0.00 | 0.00 | 44 | 1015.3 |
| 20260505174040 | 79 | 213 | 0.0 | 1.7 | 0.00 | 0.00 | 0.00 | 45 | 1015.4 |
| 20260505173543 | 78 | 241 | 0.0 | 2.6 | 0.00 | 0.00 | 0.00 | 46 | 1015.4 |
| 20260505173046 | 78 | 217 | 0.0 | 2.6 | 0.00 | 0.00 | 0.00 | 48 | 1015.5 |
| 20260505172543 | 78 | 0 | 0.0 | 1.7 | 0.00 | 0.00 | 0.00 | 48 | 1015.3 |
| 20260505172043 | 78 | 227 | 0.0 | 1.7 | 0.00 | 0.00 | 0.00 | 46 | 1015.5 |
| 20260505171553 | 78 | 0 | 0.0 | 1.7 | 0.00 | 0.00 | 0.00 | 47 | 1015.5 |
| 20260505171044 | 78 | 0 | 0.0 | 1.7 | 0.00 | 0.00 | 0.00 | 48 | 1015.6 |
| 20260505170543 | 77 | 0 | 0.0 | 1.7 | 0.00 | 0.00 | 0.00 | 49 | 1015.5 |
| 20260505170049 | 77 | 245 | 0.0 | 1.7 | 0.00 | 0.00 | 0.00 | 48 | 1015.5 |
| 20260505165545 | 77 | 0 | 0.0 | 1.7 | 0.00 | 0.00 | 0.00 | 47 | 1015.6 |
| 20260505165043 | 77 | 117 | 0.0 | 1.7 | 0.00 | 0.00 | 0.00 | 49 | 1015.6 |
| 20260505164554 | 77 | 0 | 0.0 | 1.7 | 0.00 | 0.00 | 0.00 | 49 | 1015.7 |
| 20260505164044 | 77 | 266 | 0.0 | 0.9 | 0.00 | 0.00 | 0.00 | 50 | 1015.7 |
| 20260505163543 | 77 | 0 | 0.0 | 0.9 | 0.00 | 0.00 | 0.00 | 50 | 1015.8 |
| 20260505163051 | 77 | 0 | 0.0 | 0.9 | 0.00 | 0.00 | 0.00 | 49 | 1015.8 |
| 20260505162540 | 77 | 0 | 0.0 | 0.9 | 0.00 | 0.00 | 0.00 | 50 | 1015.9 |
| 20260505162044 | 76 | 243 | 0.0 | 0.9 | 0.00 | 0.00 | 0.00 | 50 | 1016.0 |
| 20260505161554 | 76 | 0 | 0.0 | 0.9 | 0.00 | 0.00 | 0.00 | 49 | 1015.9 |
| 20260505161045 | 76 | 0 | 0.0 | 0.9 | 0.00 | 0.00 | 0.00 | 49 | 1016.0 |
| 20260505160544 | 75 | 0 | 0.0 | 1.7 | 0.00 | 0.00 | 0.00 | 51 | 1016.0 |
| 20260505153052 | 73 | 251 | 0.0 | 0.9 | 0.00 | 0.00 | 0.00 | 56 | 1016.3 |
| 20260505152544 | 73 | 0 | 0.0 | 0.9 | 0.00 | 0.00 | 0.00 | 57 | 1016.2 |
| 20260505152043 | 73 | 0 | 0.0 | 0.9 | 0.00 | 0.00 | 0.00 | 58 | 1016.3 |
| 20260505151552 | 72 | 0 | 0.0 | 0.9 | 0.00 | 0.00 | 0.00 | 58 | 1016.3 |
| 20260505151043 | 72 | 249 | 0.0 | 0.9 | 0.00 | 0.00 | 0.00 | 59 | 1016.3 |
| 20260505150544 | 72 | 0 | 0.0 | 0.9 | 0.00 | 0.00 | 0.00 | 58 | 1016.3 |
| 20260505140544 | 68 | 0 | 0.0 | 0.9 | 0.00 | 0.00 | 0.00 | 66 | 1016.1 |
| 20260505124553 | 62 | 0 | 0.0 | 0.0 | 0.00 | 0.00 | 0.00 | 73 | 1016.3 |
| 20260505124044 | 62 | 0 | 0.0 | 0.0 | 0.00 | 0.00 | 0.00 | 73 | 1016.3 |
| 20260505123545 | 62 | 0 | 0.0 | 0.9 | 0.00 | 0.00 | 0.00 | 74 | 1016.3 |
| 20260505123048 | 61 | 0 | 0.0 | 0.9 | 0.00 | 0.00 | 0.00 | 75 | 1016.3 |
| 20260505122545 | 61 | 0 | 0.0 | 0.9 | 0.00 | 0.00 | 0.00 | 75 | 1016.4 |
| 20260505122043 | 60 | 0 | 0.0 | 0.9 | 0.00 | 0.00 | 0.00 | 76 | 1016.3 |
| 20260505121552 | 60 | 243 | 0.0 | 0.0 | 0.00 | 0.00 | 0.00 | 76 | 1016.4 |
| 20260505121044 | 59 | 0 | 0.0 | 0.9 | 0.00 | 0.00 | 0.00 | 76 | 1016.2 |
| 20260505120543 | 59 | 0 | 0.0 | 0.9 | 0.00 | 0.00 | 0.00 | 77 | 1016.1 |
| 20260505120054 | 59 | 0 | 0.0 | 0.0 | 0.00 | 0.00 | 0.00 | 77 | 1016.1 |
| 20260505115544 | 58 | 0 | 0.0 | 0.0 | 0.00 | 0.00 | 0.00 | 77 | 1016.1 |
| 20260505115043 | 58 | 0 | 0.0 | 0.0 | 0.00 | 0.00 | 0.00 | 78 | 1016.1 |
| 20260505114552 | 58 | 0 | 0.0 | 0.0 | 0.00 | 0.00 | 0.00 | 78 | 1016.1 |
| 20260505114043 | 57 | 0 | 0.0 | 0.0 | 0.00 | 0.00 | 0.00 | 79 | 1016.1 |
| 20260505113543 | 57 | 0 | 0.0 | 0.0 | 0.00 | 0.00 | 0.00 | 80 | 1016.1 |
| 20260505113055 | 56 | 0 | 0.0 | 0.0 | 0.00 | 0.00 | 0.00 | 80 | 1016.0 |
| 20260505112545 | 56 | 0 | 0.0 | 0.0 | 0.00 | 0.00 | 0.00 | 81 | 1015.9 |
| 20260505112044 | 55 | 0 | 0.0 | 0.0 | 0.00 | 0.00 | 0.00 | 82 | 1015.9 |
| 20260505111548 | 55 | 0 | 0.0 | 0.0 | 0.00 | 0.00 | 0.00 | 82 | 1015.7 |
| 20260505111045 | 55 | 0 | 0.0 | 0.0 | 0.00 | 0.00 | 0.00 | 82 | 1015.7 |
| 20260505110544 | 55 | 0 | 0.0 | 0.0 | 0.00 | 0.00 | 0.00 | 81 | 1015.7 |
| 20260505102044 | 55 | 0 | 0.0 | 0.0 | 0.00 | 0.00 | 0.00 | 80 | 1015.2 |
| 20260505101551 | 55 | 0 | 0.0 | 0.0 | 0.00 | 0.00 | 0.00 | 80 | 1015.2 |
| 20260505101044 | 55 | 0 | 0.0 | 0.0 | 0.00 | 0.00 | 0.00 | 80 | 1015.2 |
| 20260505100546 | 55 | 0 | 0.0 | 0.0 | 0.00 | 0.00 | 0.00 | 80 | 1015.2 |
| 20260505100056 | 55 | 0 | 0.0 | 0.0 | 0.00 | 0.00 | 0.00 | 80 | 1015.1 |
| 20260505095545 | 55 | 0 | 0.0 | 0.0 | 0.00 | 0.00 | 0.00 | 80 | 1015.1 |
| 20260505095043 | 55 | 0 | 0.0 | 0.0 | 0.00 | 0.00 | 0.00 | 80 | 1015.1 |
| 20260505094606 | 55 | 0 | 0.0 | 0.0 | 0.00 | 0.00 | 0.00 | 80 | 1015.0 |
| 20260505094044 | 55 | 0 | 0.0 | 0.0 | 0.00 | 0.00 | 0.00 | 79 | 1015.0 |
| 20260505093547 | 55 | 0 | 0.0 | 0.0 | 0.00 | 0.00 | 0.00 | 79 | 1015.0 |
| 20260505093054 | 55 | 0 | 0.0 | 0.0 | 0.00 | 0.00 | 0.00 | 79 | 1015.0 |
| 20260505092545 | 55 | 0 | 0.0 | 0.0 | 0.00 | 0.00 | 0.00 | 79 | 1014.9 |
| 20260505092044 | 55 | 0 | 0.0 | 0.0 | 0.00 | 0.00 | 0.00 | 79 | 1014.9 |
| 20260505091604 | 55 | 0 | 0.0 | 0.0 | 0.00 | 0.00 | 0.00 | 79 | 1014.9 |
| 20260505091044 | 55 | 0 | 0.0 | 0.0 | 0.00 | 0.00 | 0.00 | 79 | 1014.9 |
| 20260505090544 | 55 | 0 | 0.0 | 0.0 | 0.00 | 0.00 | 0.00 | 79 | 1014.9 |
| 20260505090058 | 55 | 0 | 0.0 | 0.0 | 0.00 | 0.00 | 0.00 | 79 | 1014.9 |
| 20260505085544 | 56 | 0 | 0.0 | 0.0 | 0.00 | 0.00 | 0.00 | 79 | 1014.9 |
| 20260505085044 | 56 | 0 | 0.0 | 0.0 | 0.00 | 0.00 | 0.00 | 79 | 1014.9 |
| 20260505084555 | 56 | 0 | 0.0 | 0.0 | 0.00 | 0.00 | 0.00 | 79 | 1014.9 |
| 20260505084043 | 56 | 0 | 0.0 | 0.0 | 0.00 | 0.00 | 0.00 | 78 | 1014.7 |
| 20260505083544 | 56 | 0 | 0.0 | 0.0 | 0.00 | 0.00 | 0.00 | 79 | 1014.8 |
| 20260505083058 | 56 | 0 | 0.0 | 0.0 | 0.00 | 0.00 | 0.00 | 78 | 1014.9 |
| 20260505082543 | 56 | 0 | 0.0 | 0.0 | 0.00 | 0.00 | 0.00 | 78 | 1014.7 |
| 20260505082044 | 56 | 0 | 0.0 | 0.0 | 0.00 | 0.00 | 0.00 | 77 | 1014.7 |
| 20260505081600 | 56 | 0 | 0.0 | 0.0 | 0.00 | 0.00 | 0.00 | 77 | 1014.7 |
| 20260505081045 | 57 | 0 | 0.0 | 0.0 | 0.00 | 0.00 | 0.00 | 77 | 1014.7 |
| 20260505080546 | 57 | 0 | 0.0 | 0.0 | 0.00 | 0.00 | 0.00 | 77 | 1014.6 |
| 20260505080053 | 57 | 0 | 0.0 | 0.0 | 0.00 | 0.00 | 0.00 | 77 | 1014.7 |
| 20260505075544 | 57 | 0 | 0.0 | 0.0 | 0.00 | 0.00 | 0.00 | 76 | 1014.7 |
| 20260505075046 | 57 | 0 | 0.0 | 0.0 | 0.00 | 0.00 | 0.00 | 76 | 1014.6 |
| 20260505074553 | 57 | 0 | 0.0 | 0.0 | 0.00 | 0.00 | 0.00 | 76 | 1014.6 |
| 20260505074046 | 57 | 0 | 0.0 | 0.0 | 0.00 | 0.00 | 0.00 | 75 | 1014.6 |
| 20260505073545 | 58 | 0 | 0.0 | 0.0 | 0.00 | 0.00 | 0.00 | 75 | 1014.6 |
| 20260505073103 | 58 | 0 | 0.0 | 0.0 | 0.00 | 0.00 | 0.00 | 74 | 1014.5 |
| 20260505072544 | 58 | 0 | 0.0 | 0.0 | 0.00 | 0.00 | 0.00 | 74 | 1014.5 |
| 20260505072044 | 58 | 0 | 0.0 | 0.0 | 0.00 | 0.00 | 0.00 | 74 | 1014.4 |
| 20260505071555 | 58 | 0 | 0.0 | 0.0 | 0.00 | 0.00 | 0.00 | 74 | 1014.4 |
| 20260505071044 | 59 | 0 | 0.0 | 0.0 | 0.00 | 0.00 | 0.00 | 73 | 1014.4 |
| 20260505070541 | 59 | 0 | 0.0 | 0.0 | 0.00 | 0.00 | 0.00 | 73 | 1014.4 |
| 20260505070054 | 59 | 0 | 0.0 | 0.0 | 0.00 | 0.00 | 0.00 | 73 | 1014.4 |
| 20260505065544 | 59 | 0 | 0.0 | 0.0 | 0.00 | 0.00 | 0.00 | 72 | 1014.4 |
| 20260505065045 | 59 | 0 | 0.0 | 0.0 | 0.00 | 0.00 | 0.00 | 72 | 1014.4 |
| 20260505064554 | 60 | 0 | 0.0 | 0.0 | 0.00 | 0.00 | 0.00 | 72 | 1014.5 |
| 20260505064043 | 60 | 0 | 0.0 | 0.0 | 0.00 | 0.00 | 0.00 | 71 | 1014.5 |
| 20260505063546 | 60 | 0 | 0.0 | 0.0 | 0.00 | 0.00 | 0.00 | 71 | 1014.4 |
| 20260505063048 | 60 | 0 | 0.0 | 0.0 | 0.00 | 0.00 | 0.00 | 71 | 1014.4 |
| 20260505062545 | 60 | 0 | 0.0 | 0.0 | 0.00 | 0.00 | 0.00 | 70 | 1014.3 |
| 20260505062047 | 61 | 0 | 0.0 | 0.0 | 0.00 | 0.00 | 0.00 | 70 | 1014.4 |
| 20260505061601 | 61 | 0 | 0.0 | 0.0 | 0.00 | 0.00 | 0.00 | 69 | 1014.4 |
| 20260505061044 | 61 | 0 | 0.0 | 0.0 | 0.00 | 0.00 | 0.00 | 69 | 1014.4 |
| 20260505060544 | 61 | 0 | 0.0 | 0.9 | 0.00 | 0.00 | 0.00 | 69 | 1014.4 |
| 20260505060055 | 61 | 0 | 0.0 | 0.9 | 0.00 | 0.00 | 0.00 | 69 | 1014.4 |
| 20260505055545 | 61 | 0 | 0.0 | 0.0 | 0.00 | 0.00 | 0.00 | 68 | 1014.4 |
| 20260505055044 | 62 | 0 | 0.0 | 0.0 | 0.00 | 0.00 | 0.00 | 68 | 1014.4 |
| 20260505054557 | 62 | 0 | 0.0 | 0.0 | 0.00 | 0.00 | 0.00 | 68 | 1014.4 |
| 20260505054043 | 62 | 0 | 0.0 | 0.0 | 0.00 | 0.00 | 0.00 | 68 | 1014.4 |
| 20260505053543 | 62 | 0 | 0.0 | 0.9 | 0.00 | 0.00 | 0.00 | 68 | 1014.5 |
| 20260505053057 | 62 | 0 | 0.0 | 0.9 | 0.00 | 0.00 | 0.00 | 68 | 1014.6 |
| 20260505052544 | 62 | 0 | 0.0 | 0.0 | 0.00 | 0.00 | 0.00 | 67 | 1014.7 |
| 20260505052044 | 62 | 0 | 0.0 | 0.9 | 0.00 | 0.00 | 0.00 | 67 | 1014.6 |
| 20260505051549 | 62 | 0 | 0.0 | 0.9 | 0.00 | 0.00 | 0.00 | 67 | 1014.7 |
| 20260505051044 | 63 | 0 | 0.0 | 0.0 | 0.00 | 0.00 | 0.00 | 67 | 1014.7 |
| 20260505050544 | 63 | 0 | 0.0 | 0.0 | 0.00 | 0.00 | 0.00 | 66 | 1014.8 |
| 20260505041557 | 64 | 0 | 0.0 | 0.9 | 0.00 | 0.00 | 0.00 | 64 | 1014.6 |
| 20260505041043 | 64 | 0 | 0.0 | 0.9 | 0.00 | 0.00 | 0.00 | 64 | 1014.6 |
| 20260505040543 | 64 | 240 | 0.0 | 0.9 | 0.00 | 0.00 | 0.00 | 64 | 1014.6 |
| 20260505040103 | 65 | 0 | 0.0 | 0.9 | 0.00 | 0.00 | 0.00 | 63 | 1014.6 |
| 20260505035543 | 65 | 236 | 0.0 | 0.9 | 0.00 | 0.00 | 0.00 | 63 | 1014.5 |
| 20260505035044 | 65 | 0 | 0.0 | 1.7 | 0.00 | 0.00 | 0.00 | 63 | 1014.5 |
| 20260505034556 | 65 | 0 | 0.0 | 1.7 | 0.00 | 0.00 | 0.00 | 63 | 1014.5 |
| 20260505034044 | 65 | 0 | 0.0 | 1.7 | 0.00 | 0.00 | 0.00 | 63 | 1014.5 |
| 20260505033544 | 65 | 0 | 0.0 | 0.9 | 0.00 | 0.00 | 0.00 | 63 | 1014.5 |
| 20260505033056 | 66 | 0 | 0.0 | 0.9 | 0.00 | 0.00 | 0.00 | 62 | 1014.5 |
| 20260505032544 | 66 | 0 | 0.0 | 0.9 | 0.00 | 0.00 | 0.00 | 62 | 1014.5 |
| 20260505032043 | 66 | 0 | 0.0 | 0.9 | 0.00 | 0.00 | 0.00 | 62 | 1014.5 |
| 20260505031601 | 66 | 0 | 0.0 | 0.9 | 0.00 | 0.00 | 0.00 | 62 | 1014.5 |
| 20260505031047 | 66 | 228 | 0.0 | 0.9 | 0.00 | 0.00 | 0.00 | 62 | 1014.5 |
| 20260505030545 | 66 | 0 | 0.0 | 0.9 | 0.00 | 0.00 | 0.00 | 62 | 1014.5 |
| 20260505030100 | 67 | 0 | 0.0 | 1.7 | 0.00 | 0.00 | 0.00 | 61 | 1014.5 |
| 20260505025543 | 67 | 0 | 0.0 | 1.7 | 0.00 | 0.00 | 0.00 | 61 | 1014.6 |
| 20260505025044 | 67 | 237 | 0.0 | 0.9 | 0.00 | 0.00 | 0.00 | 61 | 1014.6 |
| 20260505024553 | 67 | 249 | 0.0 | 0.9 | 0.00 | 0.00 | 0.00 | 61 | 1014.5 |
| 20260505024044 | 67 | 240 | 0.0 | 0.9 | 0.00 | 0.00 | 0.00 | 60 | 1014.6 |
| 20260505023544 | 67 | 0 | 0.0 | 0.9 | 0.00 | 0.00 | 0.00 | 60 | 1014.6 |
| 20260505023051 | 67 | 0 | 0.0 | 1.7 | 0.00 | 0.00 | 0.00 | 59 | 1014.6 |
| 20260505022544 | 68 | 0 | 0.0 | 1.7 | 0.00 | 0.00 | 0.00 | 59 | 1014.5 |
| 20260505022044 | 68 | 72 | 0.0 | 0.0 | 0.00 | 0.00 | 0.00 | 58 | 1014.4 |
| 20260505021549 | 68 | 0 | 0.0 | 0.9 | 0.00 | 0.00 | 0.00 | 57 | 1014.4 |
| 20260505021044 | 68 | 0 | 0.0 | 0.9 | 0.00 | 0.00 | 0.00 | 56 | 1014.3 |
| 20260505020545 | 68 | 0 | 0.0 | 0.0 | 0.00 | 0.00 | 0.00 | 55 | 1014.3 |
| 20260505020050 | 68 | 0 | 0.0 | 0.0 | 0.00 | 0.00 | 0.00 | 54 | 1014.2 |
| 20260505015544 | 68 | 0 | 0.0 | 0.0 | 0.00 | 0.00 | 0.00 | 53 | 1014.1 |
| 20260505015044 | 68 | 0 | 0.0 | 0.0 | 0.00 | 0.00 | 0.00 | 52 | 1014.0 |
| 20260505014603 | 68 | 0 | 0.0 | 0.0 | 0.00 | 0.00 | 0.00 | 50 | 1014.0 |
| 20260505014049 | 68 | 0 | 0.0 | 0.0 | 0.00 | 0.00 | 0.00 | 50 | 1014.0 |
| 20260505013545 | 68 | 0 | 0.0 | 0.0 | 0.00 | 0.00 | 0.00 | 50 | 1014.0 |
| 20260505013049 | 68 | 0 | 0.0 | 0.0 | 0.00 | 0.00 | 0.00 | 49 | 1013.8 |
| 20260505012544 | 68 | 0 | 0.0 | 0.0 | 0.00 | 0.00 | 0.00 | 49 | 1013.7 |
| 20260505012044 | 69 | 0 | 0.0 | 0.0 | 0.00 | 0.00 | 0.00 | 48 | 1013.7 |
| 20260505011554 | 69 | 0 | 0.0 | 0.0 | 0.00 | 0.00 | 0.00 | 48 | 1013.6 |
| 20260505011045 | 69 | 0 | 0.0 | 0.0 | 0.00 | 0.00 | 0.00 | 48 | 1013.6 |
| 20260505010545 | 69 | 0 | 0.0 | 0.0 | 0.00 | 0.00 | 0.00 | 48 | 1013.5 |
| 20260505010052 | 69 | 0 | 0.0 | 0.0 | 0.00 | 0.00 | 0.00 | 46 | 1013.4 |
| 20260505005545 | 70 | 0 | 0.0 | 0.0 | 0.00 | 0.00 | 0.00 | 47 | 1013.3 |
| 20260505005045 | 70 | 0 | 0.0 | 0.0 | 0.00 | 0.00 | 0.00 | 46 | 1013.1 |
| 20260505004555 | 70 | 0 | 0.0 | 0.0 | 0.00 | 0.00 | 0.00 | 46 | 1013.1 |
| 20260505004044 | 70 | 0 | 0.0 | 0.0 | 0.00 | 0.00 | 0.00 | 45 | 1013.0 |
| 20260505003543 | 71 | 0 | 0.0 | 0.0 | 0.00 | 0.00 | 0.00 | 45 | 1013.0 |
| 20260505003054 | 71 | 0 | 0.0 | 0.0 | 0.00 | 0.00 | 0.00 | 45 | 1012.9 |
| 20260505002546 | 71 | 0 | 0.0 | 0.0 | 0.00 | 0.00 | 0.00 | 44 | 1012.9 |
| 20260505002044 | 71 | 0 | 0.0 | 0.0 | 0.00 | 0.00 | 0.00 | 45 | 1012.8 |
| 20260505001550 | 72 | 0 | 0.0 | 0.0 | 0.00 | 0.00 | 0.00 | 44 | 1012.9 |
| 20260505001044 | 72 | 0 | 0.0 | 0.0 | 0.00 | 0.00 | 0.00 | 44 | 1012.8 |
| 20260505000544 | 72 | 0 | 0.0 | 0.0 | 0.00 | 0.00 | 0.00 | 43 | 1012.8 |
| 20260505000057 | 73 | 0 | 0.0 | 0.0 | 0.00 | 0.00 | 0.00 | 42 | 1012.8 |
| 20260504235547 | 73 | 0 | 0.0 | 0.0 | 0.00 | 0.00 | 0.00 | 41 | 1012.8 |
| 20260504235044 | 73 | 0 | 0.0 | 0.0 | 0.00 | 0.00 | 0.00 | 41 | 1012.7 |
| 20260504234555 | 74 | 0 | 0.0 | 0.0 | 0.00 | 0.00 | 0.00 | 40 | 1012.6 |
| 20260504234045 | 74 | 0 | 0.0 | 0.9 | 0.00 | 0.00 | 0.00 | 40 | 1012.6 |
| 20260504233539 | 74 | 0 | 0.0 | 0.9 | 0.00 | 0.00 | 0.00 | 40 | 1012.5 |
| 20260504233052 | 75 | 0 | 0.0 | 0.9 | 0.00 | 0.00 | 0.00 | 39 | 1012.5 |
| 20260504232543 | 75 | 0 | 0.0 | 0.9 | 0.00 | 0.00 | 0.00 | 38 | 1012.5 |
| 20260504232044 | 75 | 0 | 0.0 | 0.0 | 0.00 | 0.00 | 0.00 | 37 | 1012.4 |
| 20260504231549 | 76 | 0 | 0.0 | 0.0 | 0.00 | 0.00 | 0.00 | 37 | 1012.3 |
| 20260504231038 | 76 | 0 | 0.0 | 0.9 | 0.00 | 0.00 | 0.00 | 34 | 1012.3 |
| 20260504230544 | 76 | 0 | 0.0 | 0.9 | 0.00 | 0.00 | 0.00 | 34 | 1012.3 |
| 20260504230052 | 76 | 0 | 0.0 | 0.9 | 0.00 | 0.00 | 0.00 | 33 | 1012.3 |
| 20260504225540 | 76 | 0 | 0.0 | 0.9 | 0.00 | 0.00 | 0.00 | 34 | 1012.3 |
| 20260504225042 | 77 | 225 | 0.0 | 0.9 | 0.00 | 0.00 | 0.00 | 33 | 1012.4 |
| 20260504224550 | 77 | 0 | 0.0 | 0.0 | 0.00 | 0.00 | 0.00 | 34 | 1012.4 |
| 20260504224043 | 77 | 0 | 0.0 | 0.9 | 0.00 | 0.00 | 0.00 | 35 | 1012.4 |
| 20260504223543 | 77 | 0 | 0.0 | 0.9 | 0.00 | 0.00 | 0.00 | 33 | 1012.4 |
| 20260504223050 | 77 | 233 | 0.0 | 0.9 | 0.00 | 0.00 | 0.00 | 34 | 1012.4 |
| 20260504222542 | 77 | 243 | 0.0 | 0.0 | 0.00 | 0.00 | 0.00 | 33 | 1012.4 |
| 20260504222042 | 78 | 0 | 0.0 | 1.7 | 0.00 | 0.00 | 0.00 | 33 | 1012.4 |
| 20260504221552 | 78 | 0 | 0.0 | 1.7 | 0.00 | 0.00 | 0.00 | 33 | 1012.4 |
| 20260504221042 | 78 | 0 | 0.0 | 1.7 | 0.00 | 0.00 | 0.00 | 33 | 1012.4 |
| 20260504220543 | 78 | 110 | 0.0 | 0.9 | 0.00 | 0.00 | 0.00 | 33 | 1012.4 |
| 20260504220052 | 78 | 179 | 0.0 | 0.9 | 0.00 | 0.00 | 0.00 | 33 | 1012.4 |
| 20260504215544 | 78 | 0 | 0.0 | 0.9 | 0.00 | 0.00 | 0.00 | 33 | 1012.4 |
| 20260504215042 | 79 | 0 | 0.0 | 0.9 | 0.00 | 0.00 | 0.00 | 32 | 1012.4 |
| 20260504214555 | 79 | 0 | 0.0 | 0.9 | 0.00 | 0.00 | 0.00 | 32 | 1012.4 |
| 20260504214039 | 79 | 219 | 0.0 | 0.9 | 0.00 | 0.00 | 0.00 | 33 | 1012.3 |
| 20260504213542 | 79 | 214 | 0.0 | 0.9 | 0.00 | 0.00 | 0.00 | 32 | 1012.4 |
| 20260504213056 | 79 | 216 | 0.0 | 0.9 | 0.00 | 0.00 | 0.00 | 32 | 1012.4 |
| 20260504212543 | 80 | 0 | 0.0 | 1.7 | 0.00 | 0.00 | 0.00 | 32 | 1012.5 |
| 20260504212043 | 80 | 0 | 0.0 | 1.7 | 0.00 | 0.00 | 0.00 | 32 | 1012.4 |
| 20260504211549 | 81 | 206 | 0.0 | 1.7 | 0.00 | 0.00 | 0.00 | 32 | 1012.4 |
| 20260504211043 | 82 | 0 | 0.0 | 0.9 | 0.00 | 0.00 | 0.00 | 30 | 1012.4 |
| 20260504210543 | 82 | 139 | 0.0 | 0.9 | 0.00 | 0.00 | 0.00 | 31 | 1012.4 |
| 20260504205543 | 82 | 0 | 0.0 | 0.9 | 0.00 | 0.00 | 0.00 | 31 | 1012.5 |
| 20260504205043 | 83 | 243 | 0.0 | 1.7 | 0.00 | 0.00 | 0.00 | 30 | 1012.5 |
| 20260504204610 | 82 | 6 | 0.0 | 1.7 | 0.00 | 0.00 | 0.00 | 30 | 1012.6 |
| 20260504204039 | 82 | 0 | 0.0 | 1.7 | 0.00 | 0.00 | 0.00 | 30 | 1012.6 |
| 20260504203539 | 82 | 246 | 0.0 | 1.7 | 0.00 | 0.00 | 0.00 | 30 | 1012.7 |
| 20260504203111 | 82 | 0 | 0.0 | 1.7 | 0.00 | 0.00 | 0.00 | 31 | 1012.7 |
| 20260504202542 | 82 | 0 | 0.0 | 0.9 | 0.00 | 0.00 | 0.00 | 31 | 1012.8 |
| 20260504202043 | 82 | 323 | 0.0 | 0.9 | 0.00 | 0.00 | 0.00 | 31 | 1012.8 |
| 20260504201551 | 81 | 0 | 0.0 | 0.9 | 0.00 | 0.00 | 0.00 | 31 | 1012.9 |
| 20260504201042 | 81 | 0 | 0.0 | 0.9 | 0.00 | 0.00 | 0.00 | 31 | 1013.0 |
| 20260504200542 | 81 | 230 | 0.0 | 0.9 | 0.00 | 0.00 | 0.00 | 30 | 1013.1 |
| 20260504200054 | 82 | 0 | 0.0 | 0.9 | 0.00 | 0.00 | 0.00 | 30 | 1013.1 |
| 20260504195541 | 81 | 0 | 0.0 | 1.7 | 0.00 | 0.00 | 0.00 | 32 | 1013.1 |
| 20260504195043 | 80 | 231 | 0.0 | 1.7 | 0.00 | 0.00 | 0.00 | 32 | 1013.2 |
| 20260504194547 | 80 | 252 | 0.0 | 1.7 | 0.00 | 0.00 | 0.00 | 31 | 1013.3 |
| 20260504194041 | 79 | 231 | 0.0 | 0.9 | 0.00 | 0.00 | 0.00 | 33 | 1013.4 |